WXM80 ListenWXM80 Stop

You find our weather info also at:

UK Metoffice

WeatherCloud

Weather Underground

Northeastern Weather Network

AWEKAS

Citizen Weather Observer Program (CWOP)

HAMweather, WeatherForYou, PWS Weather


Weather Underground History page Text

Daily Summary for January 6, 2018 Units:  Both    English   Metric
« Previous Day
Next Day »
Daily Weekly Monthly Yearly Custom
  High: Low: Average:
Temperature: 13.5 °F /  -10.3 °C 8.4 °F /  -13.1 °C 10.4 °F /  -12 °C
Dew Point: 0.0 °F /  -17.8 °C -2.8 °F /  -19.3 °C -1.2 °F /  -18.4 °C
Humidity: 65 % 51 % 59 %
Wind Speed: 17.6 mph /  28.3 km/h - 9.1 mph /  14.6 km/h
Wind Gust: 34.5 mph /  55.5 km/h - -
Wind:- - WNW
Pressure: 30.41 in /  1029.7 hPa 30.02 in /  1016.5 hPa -
Precipitation: 0.00 in /  0 mm    
Historical Graphs
 
 
Tabular Data for January 6, 2018
Time Temperature Dew Point Pressure Wind Wind Speed Wind Gust Humidity Rainfall Rate (Hourly)
00:00 10.3 °F /  -12.1 °C -0.2 °F /  -17.9 °C 30.03 in /  1016.8 hPa West 7.0 mph /  11.3 km/h 12.0 mph /  19.3 km/h 62 % 0.00 in /  0 mm
00:05 10.2 °F /  -12.1 °C -0.6 °F /  -18.1 °C 30.03 in /  1016.8 hPa West 13.5 mph /  21.7 km/h 25.0 mph /  40.2 km/h 61 % 0.00 in /  0 mm
00:09 10.2 °F /  -12.1 °C -0.2 °F /  -17.9 °C 30.03 in /  1016.8 hPa WSW 8.5 mph /  13.7 km/h 13.0 mph /  20.9 km/h 62 % 0.00 in /  0 mm
00:14 10.1 °F /  -12.2 °C -0.3 °F /  -17.9 °C 30.03 in /  1016.8 hPa West 6.6 mph /  10.6 km/h 20.0 mph /  32.2 km/h 62 % 0.00 in /  0 mm
00:18 10.1 °F /  -12.2 °C 0.0 °F /  -17.8 °C 30.02 in /  1016.5 hPa West 8.2 mph /  13.2 km/h 12.7 mph /  20.4 km/h 63 % 0.00 in /  0 mm
00:23 10.1 °F /  -12.2 °C -0.3 °F /  -17.9 °C 30.03 in /  1016.8 hPa West 10.6 mph /  17.1 km/h 17.3 mph /  27.8 km/h 62 % 0.00 in /  0 mm
00:28 10.1 °F /  -12.2 °C -0.7 °F /  -18.2 °C 30.03 in /  1016.8 hPa West 8.9 mph /  14.3 km/h 19.6 mph /  31.5 km/h 61 % 0.00 in /  0 mm
00:33 10.0 °F /  -12.2 °C -0.4 °F /  -18 °C 30.03 in /  1016.8 hPa WSW 10.3 mph /  16.6 km/h 17.3 mph /  27.8 km/h 62 % 0.00 in /  0 mm
00:39 9.9 °F /  -12.3 °C -1.2 °F /  -18.4 °C 30.03 in /  1016.8 hPa NW 8.1 mph /  13 km/h 19.6 mph /  31.5 km/h 60 % 0.00 in /  0 mm
00:44 9.9 °F /  -12.3 °C -0.5 °F /  -18.1 °C 30.03 in /  1016.8 hPa WSW 13.3 mph /  21.4 km/h 26.5 mph /  42.6 km/h 62 % 0.00 in /  0 mm
00:49 9.9 °F /  -12.3 °C -0.5 °F /  -18.1 °C 30.04 in /  1017.2 hPa WSW 6.5 mph /  10.5 km/h 11.5 mph /  18.5 km/h 62 % 0.00 in /  0 mm
00:54 9.9 °F /  -12.3 °C -0.5 °F /  -18.1 °C 30.04 in /  1017.2 hPa WSW 8.8 mph /  14.2 km/h 13.8 mph /  22.2 km/h 62 % 0.00 in /  0 mm
00:59 9.8 °F /  -12.3 °C -0.6 °F /  -18.1 °C 30.04 in /  1017.2 hPa SSW 6.4 mph /  10.3 km/h 15.0 mph /  24.1 km/h 62 % 0.00 in /  0 mm
01:05 9.8 °F /  -12.3 °C -0.6 °F /  -18.1 °C 30.04 in /  1017.2 hPa NW 8.9 mph /  14.3 km/h 19.6 mph /  31.5 km/h 62 % 0.00 in /  0 mm
01:10 9.9 °F /  -12.3 °C -0.5 °F /  -18.1 °C 30.05 in /  1017.5 hPa WSW 10.6 mph /  17.1 km/h 23.0 mph /  37 km/h 62 % 0.00 in /  0 mm
01:15 9.8 °F /  -12.3 °C -0.3 °F /  -17.9 °C 30.05 in /  1017.5 hPa NW 11.7 mph /  18.8 km/h 20.0 mph /  32.2 km/h 63 % 0.00 in /  0 mm
01:20 9.8 °F /  -12.3 °C -1.0 °F /  -18.3 °C 30.05 in /  1017.5 hPa WSW 9.8 mph /  15.8 km/h 23.0 mph /  37 km/h 61 % 0.00 in /  0 mm
01:25 9.8 °F /  -12.3 °C -1.0 °F /  -18.3 °C 30.04 in /  1017.2 hPa West 6.8 mph /  10.9 km/h 23.0 mph /  37 km/h 61 % 0.00 in /  0 mm
01:30 9.8 °F /  -12.3 °C -0.6 °F /  -18.1 °C 30.04 in /  1017.2 hPa WNW 11.1 mph /  17.9 km/h 19.6 mph /  31.5 km/h 62 % 0.00 in /  0 mm
01:35 9.8 °F /  -12.3 °C -0.6 °F /  -18.1 °C 30.05 in /  1017.5 hPa NW 13.6 mph /  21.9 km/h 20.7 mph /  33.3 km/h 62 % 0.00 in /  0 mm
01:38 9.8 °F /  -12.3 °C -1.3 °F /  -18.5 °C 30.05 in /  1017.5 hPa West 9.3 mph /  15 km/h 23.0 mph /  37 km/h 60 % 0.00 in /  0 mm
01:41 9.7 °F /  -12.4 °C -1.4 °F /  -18.6 °C 30.05 in /  1017.5 hPa West 10.4 mph /  16.7 km/h 20.7 mph /  33.3 km/h 60 % 0.00 in /  0 mm
01:46 9.8 °F /  -12.3 °C -1.3 °F /  -18.5 °C 30.05 in /  1017.5 hPa WNW 13.0 mph /  20.9 km/h 28.8 mph /  46.3 km/h 60 % 0.00 in /  0 mm
01:51 9.7 °F /  -12.4 °C -1.4 °F /  -18.6 °C 30.06 in /  1017.8 hPa WNW 8.6 mph /  13.8 km/h 12.7 mph /  20.4 km/h 60 % 0.00 in /  0 mm
01:56 9.7 °F /  -12.4 °C -1.4 °F /  -18.6 °C 30.06 in /  1017.8 hPa West 13.1 mph /  21.1 km/h 24.2 mph /  38.9 km/h 60 % 0.00 in /  0 mm
01:59 9.7 °F /  -12.4 °C -1.1 °F /  -18.4 °C 30.06 in /  1017.8 hPa WNW 7.6 mph /  12.2 km/h 11.5 mph /  18.5 km/h 61 % 0.00 in /  0 mm
02:01 9.6 °F /  -12.4 °C -1.2 °F /  -18.4 °C 30.06 in /  1017.8 hPa WNW 9.7 mph /  15.6 km/h 19.0 mph /  30.6 km/h 61 % 0.00 in /  0 mm
02:06 9.6 °F /  -12.4 °C -1.5 °F /  -18.6 °C 30.06 in /  1017.8 hPa WNW 7.0 mph /  11.3 km/h 19.6 mph /  31.5 km/h 60 % 0.00 in /  0 mm
02:11 9.6 °F /  -12.4 °C -1.2 °F /  -18.4 °C 30.06 in /  1017.8 hPa NW 11.0 mph /  17.7 km/h 26.5 mph /  42.6 km/h 61 % 0.00 in /  0 mm
02:16 9.5 °F /  -12.5 °C -1.3 °F /  -18.5 °C 30.07 in /  1018.2 hPa NW 8.2 mph /  13.2 km/h 15.0 mph /  24.1 km/h 61 % 0.00 in /  0 mm
02:21 9.5 °F /  -12.5 °C -1.3 °F /  -18.5 °C 30.07 in /  1018.2 hPa West 8.8 mph /  14.2 km/h 19.6 mph /  31.5 km/h 61 % 0.00 in /  0 mm
02:27 9.5 °F /  -12.5 °C -1.6 °F /  -18.7 °C 30.08 in /  1018.5 hPa West 8.0 mph /  12.9 km/h 26.5 mph /  42.6 km/h 60 % 0.00 in /  0 mm
02:30 9.5 °F /  -12.5 °C -1.6 °F /  -18.7 °C 30.08 in /  1018.5 hPa West 7.5 mph /  12.1 km/h 12.0 mph /  19.3 km/h 60 % 0.00 in /  0 mm
02:35 9.5 °F /  -12.5 °C -1.6 °F /  -18.7 °C 30.08 in /  1018.5 hPa WSW 8.7 mph /  14 km/h 20.7 mph /  33.3 km/h 60 % 0.00 in /  0 mm
02:41 9.5 °F /  -12.5 °C -1.6 °F /  -18.7 °C 30.08 in /  1018.5 hPa NW 8.9 mph /  14.3 km/h 16.1 mph /  25.9 km/h 60 % 0.00 in /  0 mm
02:46 9.4 °F /  -12.6 °C -1.7 °F /  -18.7 °C 30.08 in /  1018.5 hPa WSW 7.7 mph /  12.4 km/h 12.7 mph /  20.4 km/h 60 % 0.00 in /  0 mm
02:47 9.4 °F /  -12.6 °C -1.4 °F /  -18.6 °C 30.08 in /  1018.5 hPa SW 7.0 mph /  11.3 km/h 14.0 mph /  22.5 km/h 61 % 0.00 in /  0 mm
02:52 9.4 °F /  -12.6 °C -1.4 °F /  -18.6 °C 30.08 in /  1018.5 hPa WSW 8.8 mph /  14.2 km/h 15.0 mph /  24.1 km/h 61 % 0.00 in /  0 mm
02:57 9.4 °F /  -12.6 °C -1.4 °F /  -18.6 °C 30.08 in /  1018.5 hPa West 6.0 mph /  9.7 km/h 17.0 mph /  27.4 km/h 61 % 0.00 in /  0 mm
03:02 9.4 °F /  -12.6 °C -1.7 °F /  -18.7 °C 30.08 in /  1018.5 hPa WNW 10.4 mph /  16.7 km/h 16.1 mph /  25.9 km/h 60 % 0.00 in /  0 mm
03:05 9.4 °F /  -12.6 °C -1.4 °F /  -18.6 °C 30.08 in /  1018.5 hPa WSW 10.2 mph /  16.4 km/h 15.0 mph /  24.1 km/h 61 % 0.00 in /  0 mm
03:11 9.3 °F /  -12.6 °C -2.2 °F /  -19 °C 30.08 in /  1018.5 hPa WSW 7.6 mph /  12.2 km/h 19.6 mph /  31.5 km/h 59 % 0.00 in /  0 mm
03:16 9.2 °F /  -12.7 °C -1.9 °F /  -18.8 °C 30.09 in /  1018.8 hPa WNW 9.5 mph /  15.3 km/h 18.4 mph /  29.6 km/h 60 % 0.00 in /  0 mm
03:21 9.2 °F /  -12.7 °C -1.9 °F /  -18.8 °C 30.09 in /  1018.8 hPa West 7.6 mph /  12.2 km/h 12.7 mph /  20.4 km/h 60 % 0.00 in /  0 mm
03:26 9.1 °F /  -12.7 °C -2.0 °F /  -18.9 °C 30.08 in /  1018.5 hPa WNW 7.7 mph /  12.4 km/h 17.3 mph /  27.8 km/h 60 % 0.00 in /  0 mm
03:31 9.1 °F /  -12.7 °C -1.6 °F /  -18.7 °C 30.08 in /  1018.5 hPa WNW 11.5 mph /  18.5 km/h 20.0 mph /  32.2 km/h 61 % 0.00 in /  0 mm
03:36 9.1 °F /  -12.7 °C -2.3 °F /  -19.1 °C 30.09 in /  1018.8 hPa NW 12.1 mph /  19.5 km/h 21.9 mph /  35.2 km/h 59 % 0.00 in /  0 mm
03:42 9.1 °F /  -12.7 °C -2.0 °F /  -18.9 °C 30.09 in /  1018.8 hPa SW 9.1 mph /  14.6 km/h 16.1 mph /  25.9 km/h 60 % 0.00 in /  0 mm
03:47 9.1 °F /  -12.7 °C -1.6 °F /  -18.7 °C 30.08 in /  1018.5 hPa West 9.6 mph /  15.4 km/h 18.4 mph /  29.6 km/h 61 % 0.00 in /  0 mm
03:52 9.0 °F /  -12.8 °C -1.7 °F /  -18.7 °C 30.09 in /  1018.8 hPa West 9.4 mph /  15.1 km/h 15.0 mph /  24.1 km/h 61 % 0.00 in /  0 mm
03:57 9.1 °F /  -12.7 °C -1.6 °F /  -18.7 °C 30.09 in /  1018.8 hPa NNW 8.1 mph /  13 km/h 18.4 mph /  29.6 km/h 61 % 0.00 in /  0 mm
04:02 9.1 °F /  -12.7 °C -1.6 °F /  -18.7 °C 30.09 in /  1018.8 hPa WNW 8.2 mph /  13.2 km/h 15.0 mph /  24.1 km/h 61 % 0.00 in /  0 mm
04:07 9.1 °F /  -12.7 °C -1.6 °F /  -18.7 °C 30.09 in /  1018.8 hPa WNW 8.2 mph /  13.2 km/h 17.3 mph /  27.8 km/h 61 % 0.00 in /  0 mm
04:12 9.2 °F /  -12.7 °C -1.5 °F /  -18.6 °C 30.09 in /  1018.8 hPa WSW 7.1 mph /  11.4 km/h 12.7 mph /  20.4 km/h 61 % 0.00 in /  0 mm
04:17 9.1 °F /  -12.7 °C -2.0 °F /  -18.9 °C 30.09 in /  1018.8 hPa WSW 6.7 mph /  10.8 km/h 19.6 mph /  31.5 km/h 60 % 0.00 in /  0 mm
04:22 9.2 °F /  -12.7 °C -1.5 °F /  -18.6 °C 30.09 in /  1018.8 hPa West 11.7 mph /  18.8 km/h 17.3 mph /  27.8 km/h 61 % 0.00 in /  0 mm
04:27 9.2 °F /  -12.7 °C -1.5 °F /  -18.6 °C 30.09 in /  1018.8 hPa NW 14.8 mph /  23.8 km/h 16.0 mph /  25.7 km/h 61 % 0.00 in /  0 mm
04:31 9.2 °F /  -12.7 °C -1.9 °F /  -18.8 °C 30.09 in /  1018.8 hPa WSW 8.9 mph /  14.3 km/h 20.7 mph /  33.3 km/h 60 % 0.00 in /  0 mm
04:36 9.2 °F /  -12.7 °C -1.5 °F /  -18.6 °C 30.09 in /  1018.8 hPa West 10.2 mph /  16.4 km/h 19.6 mph /  31.5 km/h 61 % 0.00 in /  0 mm
04:41 9.2 °F /  -12.7 °C -1.5 °F /  -18.6 °C 30.10 in /  1019.2 hPa WNW 6.9 mph /  11.1 km/h 13.8 mph /  22.2 km/h 61 % 0.00 in /  0 mm
04:46 9.2 °F /  -12.7 °C -1.5 °F /  -18.6 °C 30.10 in /  1019.2 hPa NW 10.5 mph /  16.9 km/h 16.1 mph /  25.9 km/h 61 % 0.00 in /  0 mm
04:51 9.3 °F /  -12.6 °C -1.4 °F /  -18.6 °C 30.10 in /  1019.2 hPa WNW 8.9 mph /  14.3 km/h 17.0 mph /  27.4 km/h 61 % 0.00 in /  0 mm
04:56 9.4 °F /  -12.6 °C -1.4 °F /  -18.6 °C 30.09 in /  1018.8 hPa WNW 10.2 mph /  16.4 km/h 27.0 mph /  43.5 km/h 61 % 0.00 in /  0 mm
04:58 9.4 °F /  -12.6 °C -1.4 °F /  -18.6 °C 30.09 in /  1018.8 hPa West 10.1 mph /  16.3 km/h 20.0 mph /  32.2 km/h 61 % 0.00 in /  0 mm
05:03 9.6 °F /  -12.4 °C -0.8 °F /  -18.2 °C 30.10 in /  1019.2 hPa West 8.4 mph /  13.5 km/h 25.3 mph /  40.7 km/h 62 % 0.00 in /  0 mm
05:07 9.6 °F /  -12.4 °C -0.5 °F /  -18.1 °C 30.10 in /  1019.2 hPa West 8.5 mph /  13.7 km/h 9.2 mph /  14.8 km/h 63 % 0.00 in /  0 mm
05:12 9.6 °F /  -12.4 °C -0.8 °F /  -18.2 °C 30.10 in /  1019.2 hPa SSW 9.6 mph /  15.4 km/h 20.7 mph /  33.3 km/h 62 % 0.00 in /  0 mm
05:14 9.6 °F /  -12.4 °C -0.8 °F /  -18.2 °C 30.10 in /  1019.2 hPa West 11.1 mph /  17.9 km/h 19.6 mph /  31.5 km/h 62 % 0.00 in /  0 mm
05:19 9.6 °F /  -12.4 °C -1.5 °F /  -18.6 °C 30.10 in /  1019.2 hPa WSW 10.3 mph /  16.6 km/h 16.1 mph /  25.9 km/h 60 % 0.00 in /  0 mm
05:24 9.5 °F /  -12.5 °C -1.3 °F /  -18.5 °C 30.10 in /  1019.2 hPa West 9.7 mph /  15.6 km/h 18.4 mph /  29.6 km/h 61 % 0.00 in /  0 mm
05:30 9.6 °F /  -12.4 °C -1.2 °F /  -18.4 °C 30.10 in /  1019.2 hPa NNW 8.0 mph /  12.9 km/h 15.0 mph /  24.1 km/h 61 % 0.00 in /  0 mm
05:34 9.5 °F /  -12.5 °C -1.3 °F /  -18.5 °C 30.10 in /  1019.2 hPa West 5.0 mph /  8 km/h 19.6 mph /  31.5 km/h 61 % 0.00 in /  0 mm
05:39 9.5 °F /  -12.5 °C -1.3 °F /  -18.5 °C 30.11 in /  1019.5 hPa WNW 13.0 mph /  20.9 km/h 22.0 mph /  35.4 km/h 61 % 0.00 in /  0 mm
05:44 9.6 °F /  -12.4 °C -1.2 °F /  -18.4 °C 30.10 in /  1019.2 hPa NW 9.3 mph /  15 km/h 23.0 mph /  37 km/h 61 % 0.00 in /  0 mm
05:49 9.7 °F /  -12.4 °C -0.4 °F /  -18 °C 30.11 in /  1019.5 hPa WNW 5.2 mph /  8.4 km/h 17.3 mph /  27.8 km/h 63 % 0.00 in /  0 mm
05:54 9.6 °F /  -12.4 °C -1.2 °F /  -18.4 °C 30.11 in /  1019.5 hPa West 7.1 mph /  11.4 km/h 16.1 mph /  25.9 km/h 61 % 0.00 in /  0 mm
05:59 9.5 °F /  -12.5 °C -0.9 °F /  -18.3 °C 30.12 in /  1019.9 hPa SSW 13.2 mph /  21.2 km/h 27.6 mph /  44.4 km/h 62 % 0.00 in /  0 mm
06:00 9.6 °F /  -12.4 °C -1.2 °F /  -18.4 °C 30.11 in /  1019.5 hPa West 12.3 mph /  19.8 km/h 27.6 mph /  44.4 km/h 61 % 0.00 in /  0 mm
06:05 9.5 °F /  -12.5 °C -1.3 °F /  -18.5 °C 30.12 in /  1019.9 hPa WNW 6.3 mph /  10.1 km/h 25.3 mph /  40.7 km/h 61 % 0.00 in /  0 mm
06:08 9.5 °F /  -12.5 °C -1.3 °F /  -18.5 °C 30.12 in /  1019.9 hPa West 14.1 mph /  22.7 km/h 19.6 mph /  31.5 km/h 61 % 0.00 in /  0 mm
06:13 9.5 °F /  -12.5 °C -0.6 °F /  -18.1 °C 30.12 in /  1019.9 hPa WSW 13.4 mph /  21.6 km/h 24.2 mph /  38.9 km/h 63 % 0.00 in /  0 mm
06:18 9.6 °F /  -12.4 °C -0.8 °F /  -18.2 °C 30.12 in /  1019.9 hPa NW 13.9 mph /  22.4 km/h 19.6 mph /  31.5 km/h 62 % 0.00 in /  0 mm
06:23 9.5 °F /  -12.5 °C -0.9 °F /  -18.3 °C 30.12 in /  1019.9 hPa SW 17.6 mph /  28.3 km/h 34.5 mph /  55.5 km/h 62 % 0.00 in /  0 mm
06:26 9.5 °F /  -12.5 °C -1.3 °F /  -18.5 °C 30.12 in /  1019.9 hPa WNW 11.9 mph /  19.2 km/h 29.9 mph /  48.1 km/h 61 % 0.00 in /  0 mm
06:31 9.5 °F /  -12.5 °C -0.6 °F /  -18.1 °C 30.13 in /  1020.2 hPa WSW 7.3 mph /  11.7 km/h 15.0 mph /  24.1 km/h 63 % 0.00 in /  0 mm
06:36 9.5 °F /  -12.5 °C -0.9 °F /  -18.3 °C 30.11 in /  1019.5 hPa WSW 11.7 mph /  18.8 km/h 24.2 mph /  38.9 km/h 62 % 0.00 in /  0 mm
06:41 9.6 °F /  -12.4 °C -0.5 °F /  -18.1 °C 30.12 in /  1019.9 hPa WSW 15.0 mph /  24.1 km/h 21.9 mph /  35.2 km/h 63 % 0.00 in /  0 mm
06:47 9.5 °F /  -12.5 °C -1.3 °F /  -18.5 °C 30.12 in /  1019.9 hPa WSW 8.8 mph /  14.2 km/h 13.0 mph /  20.9 km/h 61 % 0.00 in /  0 mm
06:52 9.5 °F /  -12.5 °C -1.3 °F /  -18.5 °C 30.12 in /  1019.9 hPa West 10.5 mph /  16.9 km/h 18.4 mph /  29.6 km/h 61 % 0.00 in /  0 mm
06:56 9.4 °F /  -12.6 °C -1.3 °F /  -18.5 °C 30.12 in /  1019.9 hPa WSW 9.0 mph /  14.5 km/h 23.0 mph /  37 km/h 61 % 0.00 in /  0 mm
06:57 9.4 °F /  -12.6 °C -1.4 °F /  -18.6 °C 30.12 in /  1019.9 hPa WNW 10.7 mph /  17.2 km/h 20.0 mph /  32.2 km/h 61 % 0.00 in /  0 mm
07:03 9.4 °F /  -12.6 °C -1.4 °F /  -18.6 °C 30.13 in /  1020.2 hPa West 8.5 mph /  13.7 km/h 16.0 mph /  25.7 km/h 61 % 0.00 in /  0 mm
07:08 9.4 °F /  -12.6 °C -0.7 °F /  -18.2 °C 30.13 in /  1020.2 hPa SW 10.0 mph /  16.1 km/h 19.6 mph /  31.5 km/h 63 % 0.00 in /  0 mm
07:13 9.4 °F /  -12.6 °C -1.0 °F /  -18.3 °C 30.14 in /  1020.5 hPa WNW 10.9 mph /  17.5 km/h 21.0 mph /  33.8 km/h 62 % 0.00 in /  0 mm
07:16 9.4 °F /  -12.6 °C -1.0 °F /  -18.3 °C 30.13 in /  1020.2 hPa WNW 13.1 mph /  21.1 km/h 26.5 mph /  42.6 km/h 62 % 0.00 in /  0 mm
07:21 9.4 °F /  -12.6 °C -0.7 °F /  -18.2 °C 30.14 in /  1020.5 hPa WNW 8.2 mph /  13.2 km/h 19.6 mph /  31.5 km/h 63 % 0.00 in /  0 mm
07:23 9.5 °F /  -12.5 °C -0.2 °F /  -17.9 °C 30.14 in /  1020.5 hPa WSW 9.7 mph /  15.6 km/h 23.0 mph /  37 km/h 64 % 0.00 in /  0 mm
07:29 9.5 °F /  -12.5 °C -0.2 °F /  -17.9 °C 30.14 in /  1020.5 hPa WNW 10.0 mph /  16.1 km/h 16.1 mph /  25.9 km/h 64 % 0.00 in /  0 mm
07:34 9.5 °F /  -12.5 °C -0.6 °F /  -18.1 °C 30.15 in /  1020.9 hPa NW 4.4 mph /  7.1 km/h 11.5 mph /  18.5 km/h 63 % 0.00 in /  0 mm
07:39 9.5 °F /  -12.5 °C -0.6 °F /  -18.1 °C 30.15 in /  1020.9 hPa NW 8.9 mph /  14.3 km/h 23.0 mph /  37 km/h 63 % 0.00 in /  0 mm
07:44 9.5 °F /  -12.5 °C -0.6 °F /  -18.1 °C 30.15 in /  1020.9 hPa WSW 11.2 mph /  18 km/h 25.0 mph /  40.2 km/h 63 % 0.00 in /  0 mm
07:49 9.5 °F /  -12.5 °C -0.6 °F /  -18.1 °C 30.15 in /  1020.9 hPa WSW 12.0 mph /  19.3 km/h 18.4 mph /  29.6 km/h 63 % 0.00 in /  0 mm
07:50 9.5 °F /  -12.5 °C -0.6 °F /  -18.1 °C 30.15 in /  1020.9 hPa West 11.8 mph /  19 km/h 18.4 mph /  29.6 km/h 63 % 0.00 in /  0 mm
07:55 9.6 °F /  -12.4 °C -0.8 °F /  -18.2 °C 30.15 in /  1020.9 hPa NW 7.9 mph /  12.7 km/h 11.0 mph /  17.7 km/h 62 % 0.00 in /  0 mm
08:01 9.6 °F /  -12.4 °C -0.5 °F /  -18.1 °C 30.15 in /  1020.9 hPa West 9.0 mph /  14.5 km/h 13.8 mph /  22.2 km/h 63 % 0.00 in /  0 mm
08:06 9.6 °F /  -12.4 °C -0.5 °F /  -18.1 °C 30.16 in /  1021.2 hPa West 9.0 mph /  14.5 km/h 20.0 mph /  32.2 km/h 63 % 0.00 in /  0 mm
08:07 9.6 °F /  -12.4 °C -0.5 °F /  -18.1 °C 30.16 in /  1021.2 hPa WSW 9.7 mph /  15.6 km/h 19.6 mph /  31.5 km/h 63 % 0.00 in /  0 mm
08:12 9.7 °F /  -12.4 °C -0.4 °F /  -18 °C 30.16 in /  1021.2 hPa West 9.2 mph /  14.8 km/h 17.3 mph /  27.8 km/h 63 % 0.00 in /  0 mm
08:17 9.7 °F /  -12.4 °C -0.7 °F /  -18.2 °C 30.16 in /  1021.2 hPa SW 9.7 mph /  15.6 km/h 20.7 mph /  33.3 km/h 62 % 0.00 in /  0 mm
08:22 9.7 °F /  -12.4 °C -0.4 °F /  -18 °C 30.17 in /  1021.6 hPa WNW 9.7 mph /  15.6 km/h 17.3 mph /  27.8 km/h 63 % 0.00 in /  0 mm
08:27 9.8 °F /  -12.3 °C -0.3 °F /  -17.9 °C 30.17 in /  1021.6 hPa WSW 5.9 mph /  9.5 km/h 16.1 mph /  25.9 km/h 63 % 0.00 in /  0 mm
08:29 9.8 °F /  -12.3 °C 0.0 °F /  -17.8 °C 30.17 in /  1021.6 hPa WNW 9.9 mph /  15.9 km/h 18.4 mph /  29.6 km/h 64 % 0.00 in /  0 mm
08:34 9.9 °F /  -12.3 °C -0.2 °F /  -17.9 °C 30.17 in /  1021.6 hPa SW 10.8 mph /  17.4 km/h 21.9 mph /  35.2 km/h 63 % 0.00 in /  0 mm
08:36 9.9 °F /  -12.3 °C -0.2 °F /  -17.9 °C 30.16 in /  1021.2 hPa NW 9.7 mph /  15.6 km/h 20.7 mph /  33.3 km/h 63 % 0.00 in /  0 mm
08:42 9.9 °F /  -12.3 °C -0.5 °F /  -18.1 °C 30.16 in /  1021.2 hPa NW 10.0 mph /  16.1 km/h 20.7 mph /  33.3 km/h 62 % 0.00 in /  0 mm
08:47 10.0 °F /  -12.2 °C -0.4 °F /  -18 °C 30.17 in /  1021.6 hPa West 11.1 mph /  17.9 km/h 19.6 mph /  31.5 km/h 62 % 0.00 in /  0 mm
08:48 10.0 °F /  -12.2 °C -0.4 °F /  -18 °C 30.17 in /  1021.6 hPa NW 10.2 mph /  16.4 km/h 16.1 mph /  25.9 km/h 62 % 0.00 in /  0 mm
08:53 10.1 °F /  -12.2 °C 0.0 °F /  -17.8 °C 30.17 in /  1021.6 hPa SW 8.5 mph /  13.7 km/h 15.0 mph /  24.1 km/h 63 % 0.00 in /  0 mm
08:58 10.2 °F /  -12.1 °C -0.2 °F /  -17.9 °C 30.17 in /  1021.6 hPa West 8.0 mph /  12.9 km/h 14.0 mph /  22.5 km/h 62 % 0.00 in /  0 mm
09:01 10.2 °F /  -12.1 °C -0.2 °F /  -17.9 °C 30.17 in /  1021.6 hPa West 7.9 mph /  12.7 km/h 15.0 mph /  24.1 km/h 62 % 0.00 in /  0 mm
09:07 10.3 °F /  -12.1 °C -0.2 °F /  -17.9 °C 30.17 in /  1021.6 hPa West 8.6 mph /  13.8 km/h 16.1 mph /  25.9 km/h 62 % 0.00 in /  0 mm
09:12 10.3 °F /  -12.1 °C -1.2 °F /  -18.4 °C 30.18 in /  1021.9 hPa SW 12.5 mph /  20.1 km/h 20.7 mph /  33.3 km/h 59 % 0.00 in /  0 mm
09:15 10.3 °F /  -12.1 °C -1.6 °F /  -18.7 °C 30.18 in /  1021.9 hPa WNW 10.6 mph /  17.1 km/h 19.0 mph /  30.6 km/h 58 % 0.00 in /  0 mm
09:20 10.3 °F /  -12.1 °C -1.2 °F /  -18.4 °C 30.18 in /  1021.9 hPa WSW 4.8 mph /  7.7 km/h 18.4 mph /  29.6 km/h 59 % 0.00 in /  0 mm
09:25 10.3 °F /  -12.1 °C -1.6 °F /  -18.7 °C 30.18 in /  1021.9 hPa WNW 10.1 mph /  16.3 km/h 21.9 mph /  35.2 km/h 58 % 0.00 in /  0 mm
09:31 10.4 °F /  -12 °C -1.8 °F /  -18.8 °C 30.18 in /  1021.9 hPa WSW 9.7 mph /  15.6 km/h 19.6 mph /  31.5 km/h 57 % 0.00 in /  0 mm
09:36 10.6 °F /  -11.9 °C -1.3 °F /  -18.5 °C 30.18 in /  1021.9 hPa WNW 6.4 mph /  10.3 km/h 17.3 mph /  27.8 km/h 58 % 0.00 in /  0 mm
09:41 10.8 °F /  -11.8 °C -0.7 °F /  -18.2 °C 30.18 in /  1021.9 hPa WNW 6.8 mph /  10.9 km/h 13.8 mph /  22.2 km/h 59 % 0.00 in /  0 mm
09:44 10.9 °F /  -11.7 °C -0.6 °F /  -18.1 °C 30.19 in /  1022.2 hPa WNW 7.9 mph /  12.7 km/h 16.0 mph /  25.7 km/h 59 % 0.00 in /  0 mm
09:49 11.1 °F /  -11.6 °C -0.8 °F /  -18.2 °C 30.18 in /  1021.9 hPa NNW 11.1 mph /  17.9 km/h 18.4 mph /  29.6 km/h 58 % 0.00 in /  0 mm
09:54 11.3 °F /  -11.5 °C -0.6 °F /  -18.1 °C 30.19 in /  1022.2 hPa West 11.4 mph /  18.3 km/h 19.6 mph /  31.5 km/h 58 % 0.00 in /  0 mm
09:59 11.4 °F /  -11.4 °C -0.9 °F /  -18.3 °C 30.18 in /  1021.9 hPa NW 9.3 mph /  15 km/h 13.8 mph /  22.2 km/h 57 % 0.00 in /  0 mm
10:02 11.4 °F /  -11.4 °C -1.3 °F /  -18.5 °C 30.18 in /  1021.9 hPa WNW 3.3 mph /  5.3 km/h 18.4 mph /  29.6 km/h 56 % 0.00 in /  0 mm
10:07 11.5 °F /  -11.4 °C -1.2 °F /  -18.4 °C 30.18 in /  1021.9 hPa WSW 9.3 mph /  15 km/h 17.3 mph /  27.8 km/h 56 % 0.00 in /  0 mm
10:12 11.5 °F /  -11.4 °C -1.6 °F /  -18.7 °C 30.19 in /  1022.2 hPa WSW 10.4 mph /  16.7 km/h 19.6 mph /  31.5 km/h 55 % 0.00 in /  0 mm
10:17 11.6 °F /  -11.3 °C -1.1 °F /  -18.4 °C 30.19 in /  1022.2 hPa WNW 7.3 mph /  11.7 km/h 17.0 mph /  27.4 km/h 56 % 0.00 in /  0 mm
10:22 11.7 °F /  -11.3 °C -1.0 °F /  -18.3 °C 30.19 in /  1022.2 hPa West 6.6 mph /  10.6 km/h 15.0 mph /  24.1 km/h 56 % 0.00 in /  0 mm
10:27 11.8 °F /  -11.2 °C -1.3 °F /  -18.5 °C 30.19 in /  1022.2 hPa NNW 10.4 mph /  16.7 km/h 12.7 mph /  20.4 km/h 55 % 0.00 in /  0 mm
10:33 11.8 °F /  -11.2 °C -1.3 °F /  -18.5 °C 30.19 in /  1022.2 hPa WNW 9.3 mph /  15 km/h 14.0 mph /  22.5 km/h 55 % 0.00 in /  0 mm
10:34 11.8 °F /  -11.2 °C -1.3 °F /  -18.5 °C 30.19 in /  1022.2 hPa WNW 11.3 mph /  18.2 km/h 20.7 mph /  33.3 km/h 55 % 0.00 in /  0 mm
10:39 11.6 °F /  -11.3 °C -1.5 °F /  -18.6 °C 30.19 in /  1022.2 hPa NW 8.7 mph /  14 km/h 21.9 mph /  35.2 km/h 55 % 0.00 in /  0 mm
10:43 11.6 °F /  -11.3 °C -0.7 °F /  -18.2 °C 30.19 in /  1022.2 hPa WSW 5.6 mph /  9 km/h 13.0 mph /  20.9 km/h 57 % 0.00 in /  0 mm
10:49 11.7 °F /  -11.3 °C -0.6 °F /  -18.1 °C 30.19 in /  1022.2 hPa West 10.6 mph /  17.1 km/h 19.6 mph /  31.5 km/h 57 % 0.00 in /  0 mm
10:51 11.7 °F /  -11.3 °C -1.0 °F /  -18.3 °C 30.19 in /  1022.2 hPa WNW 8.0 mph /  12.9 km/h 20.0 mph /  32.2 km/h 56 % 0.00 in /  0 mm
10:56 11.8 °F /  -11.2 °C -1.3 °F /  -18.5 °C 30.19 in /  1022.2 hPa West 13.9 mph /  22.4 km/h 16.1 mph /  25.9 km/h 55 % 0.00 in /  0 mm
10:58 11.8 °F /  -11.2 °C -1.3 °F /  -18.5 °C 30.19 in /  1022.2 hPa West 9.4 mph /  15.1 km/h 17.3 mph /  27.8 km/h 55 % 0.00 in /  0 mm
11:03 11.7 °F /  -11.3 °C -1.0 °F /  -18.3 °C 30.19 in /  1022.2 hPa West 8.1 mph /  13 km/h 19.6 mph /  31.5 km/h 56 % 0.00 in /  0 mm
11:08 11.7 °F /  -11.3 °C -1.0 °F /  -18.3 °C 30.19 in /  1022.2 hPa WNW 10.0 mph /  16.1 km/h 25.3 mph /  40.7 km/h 56 % 0.00 in /  0 mm
11:13 11.6 °F /  -11.3 °C -1.1 °F /  -18.4 °C 30.20 in /  1022.6 hPa West 7.5 mph /  12.1 km/h 15.0 mph /  24.1 km/h 56 % 0.00 in /  0 mm
11:17 11.6 °F /  -11.3 °C -0.7 °F /  -18.2 °C 30.20 in /  1022.6 hPa NW 12.5 mph /  20.1 km/h 20.0 mph /  32.2 km/h 57 % 0.00 in /  0 mm
11:22 11.6 °F /  -11.3 °C -0.3 °F /  -17.9 °C 30.19 in /  1022.2 hPa WNW 11.3 mph /  18.2 km/h 20.7 mph /  33.3 km/h 58 % 0.00 in /  0 mm
11:25 11.6 °F /  -11.3 °C -0.7 °F /  -18.2 °C 30.19 in /  1022.2 hPa SW 11.1 mph /  17.9 km/h 16.1 mph /  25.9 km/h 57 % 0.00 in /  0 mm
11:30 11.6 °F /  -11.3 °C -0.3 °F /  -17.9 °C 30.18 in /  1021.9 hPa WSW 12.5 mph /  20.1 km/h 20.7 mph /  33.3 km/h 58 % 0.00 in /  0 mm
11:32 11.6 °F /  -11.3 °C -1.1 °F /  -18.4 °C 30.18 in /  1021.9 hPa WSW 10.2 mph /  16.4 km/h 18.4 mph /  29.6 km/h 56 % 0.00 in /  0 mm
11:37 11.4 °F /  -11.4 °C -1.7 °F /  -18.7 °C 30.18 in /  1021.9 hPa NNW 7.2 mph /  11.6 km/h 18.4 mph /  29.6 km/h 55 % 0.00 in /  0 mm
11:42 11.4 °F /  -11.4 °C -1.3 °F /  -18.5 °C 30.18 in /  1021.9 hPa West 9.4 mph /  15.1 km/h 18.4 mph /  29.6 km/h 56 % 0.00 in /  0 mm
11:48 11.4 °F /  -11.4 °C -0.9 °F /  -18.3 °C 30.18 in /  1021.9 hPa West 8.4 mph /  13.5 km/h 19.6 mph /  31.5 km/h 57 % 0.00 in /  0 mm
11:53 11.4 °F /  -11.4 °C -1.3 °F /  -18.5 °C 30.19 in /  1022.2 hPa NW 10.5 mph /  16.9 km/h 18.4 mph /  29.6 km/h 56 % 0.00 in /  0 mm
11:58 11.4 °F /  -11.4 °C -1.7 °F /  -18.7 °C 30.19 in /  1022.2 hPa WNW 10.3 mph /  16.6 km/h 23.0 mph /  37 km/h 55 % 0.00 in /  0 mm
12:04 11.5 °F /  -11.4 °C -2.0 °F /  -18.9 °C 30.18 in /  1021.9 hPa West 11.6 mph /  18.7 km/h 14.0 mph /  22.5 km/h 54 % 0.00 in /  0 mm
12:10 11.6 °F /  -11.3 °C -1.5 °F /  -18.6 °C 30.18 in /  1021.9 hPa WNW 10.4 mph /  16.7 km/h 21.0 mph /  33.8 km/h 55 % 0.00 in /  0 mm
12:15 11.7 °F /  -11.3 °C -1.4 °F /  -18.6 °C 30.18 in /  1021.9 hPa West 7.8 mph /  12.6 km/h 18.4 mph /  29.6 km/h 55 % 0.00 in /  0 mm
12:20 11.9 °F /  -11.2 °C -0.8 °F /  -18.2 °C 30.18 in /  1021.9 hPa NW 11.2 mph /  18 km/h 19.6 mph /  31.5 km/h 56 % 0.00 in /  0 mm
12:25 12.1 °F /  -11.1 °C -1.0 °F /  -18.3 °C 30.18 in /  1021.9 hPa West 9.2 mph /  14.8 km/h 18.4 mph /  29.6 km/h 55 % 0.00 in /  0 mm
12:30 12.3 °F /  -10.9 °C -0.8 °F /  -18.2 °C 30.18 in /  1021.9 hPa WNW 8.9 mph /  14.3 km/h 18.4 mph /  29.6 km/h 55 % 0.00 in /  0 mm
12:35 12.4 °F /  -10.9 °C -1.5 °F /  -18.6 °C 30.18 in /  1021.9 hPa WNW 10.9 mph /  17.5 km/h 18.4 mph /  29.6 km/h 53 % 0.00 in /  0 mm
12:41 12.5 °F /  -10.8 °C -1.8 °F /  -18.8 °C 30.18 in /  1021.9 hPa NW 5.0 mph /  8 km/h 17.3 mph /  27.8 km/h 52 % 0.00 in /  0 mm
12:46 12.7 °F /  -10.7 °C -0.8 °F /  -18.2 °C 30.18 in /  1021.9 hPa WNW 9.7 mph /  15.6 km/h 18.4 mph /  29.6 km/h 54 % 0.00 in /  0 mm
12:51 12.8 °F /  -10.7 °C -1.1 °F /  -18.4 °C 30.18 in /  1021.9 hPa West 11.3 mph /  18.2 km/h 17.3 mph /  27.8 km/h 53 % 0.00 in /  0 mm
13:48 13.5 °F /  -10.3 °C -0.9 °F /  -18.3 °C 30.18 in /  1021.9 hPa West 8.6 mph /  13.8 km/h 23.0 mph /  37 km/h 52 % 0.00 in /  0 mm
13:49 13.5 °F /  -10.3 °C -1.3 °F /  -18.5 °C 30.18 in /  1021.9 hPa NW 7.8 mph /  12.6 km/h 19.0 mph /  30.6 km/h 51 % 0.00 in /  0 mm
13:55 13.5 °F /  -10.3 °C -0.9 °F /  -18.3 °C 30.18 in /  1021.9 hPa West 8.6 mph /  13.8 km/h 19.6 mph /  31.5 km/h 52 % 0.00 in /  0 mm
14:00 13.5 °F /  -10.3 °C -0.9 °F /  -18.3 °C 30.18 in /  1021.9 hPa WSW 11.0 mph /  17.7 km/h 19.6 mph /  31.5 km/h 52 % 0.00 in /  0 mm
14:05 13.5 °F /  -10.3 °C -1.3 °F /  -18.5 °C 30.19 in /  1022.2 hPa WNW 6.2 mph /  10 km/h 15.0 mph /  24.1 km/h 51 % 0.00 in /  0 mm
14:10 13.4 °F /  -10.3 °C -1.4 °F /  -18.6 °C 30.19 in /  1022.2 hPa WSW 14.5 mph /  23.3 km/h 21.0 mph /  33.8 km/h 51 % 0.00 in /  0 mm
14:15 13.4 °F /  -10.3 °C -0.6 °F /  -18.1 °C 30.19 in /  1022.2 hPa NNW 9.6 mph /  15.4 km/h 16.1 mph /  25.9 km/h 53 % 0.00 in /  0 mm
14:20 13.5 °F /  -10.3 °C -0.9 °F /  -18.3 °C 30.19 in /  1022.2 hPa West 8.3 mph /  13.4 km/h 18.4 mph /  29.6 km/h 52 % 0.00 in /  0 mm
14:21 13.5 °F /  -10.3 °C -0.9 °F /  -18.3 °C 30.19 in /  1022.2 hPa West 11.5 mph /  18.5 km/h 19.6 mph /  31.5 km/h 52 % 0.00 in /  0 mm
14:26 13.4 °F /  -10.3 °C -0.6 °F /  -18.1 °C 30.19 in /  1022.2 hPa WNW 8.1 mph /  13 km/h 15.0 mph /  24.1 km/h 53 % 0.00 in /  0 mm
14:31 13.3 °F /  -10.4 °C -1.1 °F /  -18.4 °C 30.20 in /  1022.6 hPa NW 8.3 mph /  13.4 km/h 19.6 mph /  31.5 km/h 52 % 0.00 in /  0 mm
14:36 13.1 °F /  -10.5 °C -0.9 °F /  -18.3 °C 30.20 in /  1022.6 hPa West 8.9 mph /  14.3 km/h 18.0 mph /  29 km/h 53 % 0.00 in /  0 mm
14:41 13.0 °F /  -10.6 °C -0.6 °F /  -18.1 °C 30.20 in /  1022.6 hPa WNW 6.3 mph /  10.1 km/h 11.0 mph /  17.7 km/h 54 % 0.00 in /  0 mm
14:47 12.8 °F /  -10.7 °C -1.5 °F /  -18.6 °C 30.19 in /  1022.2 hPa WSW 7.0 mph /  11.3 km/h 15.0 mph /  24.1 km/h 52 % 0.00 in /  0 mm
14:52 12.7 °F /  -10.7 °C -1.6 °F /  -18.7 °C 30.20 in /  1022.6 hPa WNW 12.4 mph /  20 km/h 29.0 mph /  46.7 km/h 52 % 0.00 in /  0 mm
14:57 12.6 °F /  -10.8 °C -1.3 °F /  -18.5 °C 30.20 in /  1022.6 hPa NNW 6.8 mph /  10.9 km/h 6.9 mph /  11.1 km/h 53 % 0.00 in /  0 mm
15:00 12.6 °F /  -10.8 °C -1.3 °F /  -18.5 °C 30.20 in /  1022.6 hPa WSW 5.0 mph /  8 km/h 11.0 mph /  17.7 km/h 53 % 0.00 in /  0 mm
15:06 12.7 °F /  -10.7 °C -0.8 °F /  -18.2 °C 30.20 in /  1022.6 hPa WNW 10.0 mph /  16.1 km/h 20.0 mph /  32.2 km/h 54 % 0.00 in /  0 mm
15:07 12.8 °F /  -10.7 °C -0.7 °F /  -18.2 °C 30.20 in /  1022.6 hPa WNW 10.7 mph /  17.2 km/h 17.0 mph /  27.4 km/h 54 % 0.00 in /  0 mm
15:12 12.7 °F /  -10.7 °C -1.2 °F /  -18.4 °C 30.20 in /  1022.6 hPa West 8.8 mph /  14.2 km/h 15.0 mph /  24.1 km/h 53 % 0.00 in /  0 mm
15:19 12.6 °F /  -10.8 °C -1.7 °F /  -18.7 °C 30.21 in /  1022.9 hPa WSW 9.8 mph /  15.8 km/h 20.7 mph /  33.3 km/h 52 % 0.00 in /  0 mm
15:24 12.6 °F /  -10.8 °C -1.7 °F /  -18.7 °C 30.21 in /  1022.9 hPa WSW 7.5 mph /  12.1 km/h 13.8 mph /  22.2 km/h 52 % 0.00 in /  0 mm
15:26 12.6 °F /  -10.8 °C -1.7 °F /  -18.7 °C 30.21 in /  1022.9 hPa NW 10.9 mph /  17.5 km/h 19.6 mph /  31.5 km/h 52 % 0.00 in /  0 mm
15:31 12.6 °F /  -10.8 °C -1.3 °F /  -18.5 °C 30.21 in /  1022.9 hPa WNW 10.0 mph /  16.1 km/h 17.3 mph /  27.8 km/h 53 % 0.00 in /  0 mm
15:38 12.5 °F /  -10.8 °C -1.4 °F /  -18.6 °C 30.22 in /  1023.2 hPa NE 5.6 mph /  9 km/h 20.7 mph /  33.3 km/h 53 % 0.00 in /  0 mm
15:40 12.5 °F /  -10.8 °C -0.6 °F /  -18.1 °C 30.22 in /  1023.2 hPa West 6.9 mph /  11.1 km/h 16.1 mph /  25.9 km/h 55 % 0.00 in /  0 mm
15:45 12.6 °F /  -10.8 °C -1.3 °F /  -18.5 °C 30.22 in /  1023.2 hPa NW 7.4 mph /  11.9 km/h 15.0 mph /  24.1 km/h 53 % 0.00 in /  0 mm
15:50 12.6 °F /  -10.8 °C -1.3 °F /  -18.5 °C 30.22 in /  1023.2 hPa West 9.7 mph /  15.6 km/h 19.6 mph /  31.5 km/h 53 % 0.00 in /  0 mm
15:55 12.7 °F /  -10.7 °C -1.2 °F /  -18.4 °C 30.23 in /  1023.6 hPa WSW 10.1 mph /  16.3 km/h 21.9 mph /  35.2 km/h 53 % 0.00 in /  0 mm
16:00 12.6 °F /  -10.8 °C -1.7 °F /  -18.7 °C 30.23 in /  1023.6 hPa West 8.9 mph /  14.3 km/h 18.4 mph /  29.6 km/h 52 % 0.00 in /  0 mm
16:02 12.6 °F /  -10.8 °C -1.7 °F /  -18.7 °C 30.23 in /  1023.6 hPa NW 8.7 mph /  14 km/h 15.0 mph /  24.1 km/h 52 % 0.00 in /  0 mm
16:07 12.6 °F /  -10.8 °C -1.3 °F /  -18.5 °C 30.24 in /  1023.9 hPa SW 9.0 mph /  14.5 km/h 15.0 mph /  24.1 km/h 53 % 0.00 in /  0 mm
16:12 12.5 °F /  -10.8 °C -1.8 °F /  -18.8 °C 30.24 in /  1023.9 hPa West 6.9 mph /  11.1 km/h 19.6 mph /  31.5 km/h 52 % 0.00 in /  0 mm
16:17 12.6 °F /  -10.8 °C -1.3 °F /  -18.5 °C 30.24 in /  1023.9 hPa WNW 8.8 mph /  14.2 km/h 13.8 mph /  22.2 km/h 53 % 0.00 in /  0 mm
16:21 12.6 °F /  -10.8 °C -1.7 °F /  -18.7 °C 30.25 in /  1024.3 hPa West 9.8 mph /  15.8 km/h 21.0 mph /  33.8 km/h 52 % 0.00 in /  0 mm
16:26 12.5 °F /  -10.8 °C -1.4 °F /  -18.6 °C 30.24 in /  1023.9 hPa West 7.9 mph /  12.7 km/h 18.0 mph /  29 km/h 53 % 0.00 in /  0 mm
16:32 12.5 °F /  -10.8 °C -1.4 °F /  -18.6 °C 30.25 in /  1024.3 hPa WSW 6.2 mph /  10 km/h 16.1 mph /  25.9 km/h 53 % 0.00 in /  0 mm
16:37 12.3 °F /  -10.9 °C -2.0 °F /  -18.9 °C 30.26 in /  1024.6 hPa West 6.2 mph /  10 km/h 11.5 mph /  18.5 km/h 52 % 0.00 in /  0 mm
16:38 12.3 °F /  -10.9 °C -2.0 °F /  -18.9 °C 30.25 in /  1024.3 hPa WSW 6.3 mph /  10.1 km/h 12.0 mph /  19.3 km/h 52 % 0.00 in /  0 mm
16:43 12.1 °F /  -11.1 °C -2.6 °F /  -19.2 °C 30.25 in /  1024.3 hPa WNW 6.8 mph /  10.9 km/h 17.3 mph /  27.8 km/h 51 % 0.00 in /  0 mm
16:48 12.1 °F /  -11.1 °C -2.2 °F /  -19 °C 30.26 in /  1024.6 hPa WSW 4.1 mph /  6.6 km/h 11.5 mph /  18.5 km/h 52 % 0.00 in /  0 mm
16:50 12.0 °F /  -11.1 °C -1.9 °F /  -18.8 °C 30.26 in /  1024.6 hPa West 8.7 mph /  14 km/h 16.1 mph /  25.9 km/h 53 % 0.00 in /  0 mm
16:55 12.0 °F /  -11.1 °C -1.5 °F /  -18.6 °C 30.27 in /  1024.9 hPa WNW 8.4 mph /  13.5 km/h 15.0 mph /  24.1 km/h 54 % 0.00 in /  0 mm
17:00 12.1 °F /  -11.1 °C -1.0 °F /  -18.3 °C 30.27 in /  1024.9 hPa NW 9.2 mph /  14.8 km/h 18.4 mph /  29.6 km/h 55 % 0.00 in /  0 mm
17:05 12.1 °F /  -11.1 °C -1.8 °F /  -18.8 °C 30.27 in /  1024.9 hPa NW 10.5 mph /  16.9 km/h 17.3 mph /  27.8 km/h 53 % 0.00 in /  0 mm
17:10 12.2 °F /  -11 °C -1.3 °F /  -18.5 °C 30.27 in /  1024.9 hPa WNW 10.8 mph /  17.4 km/h 19.6 mph /  31.5 km/h 54 % 0.00 in /  0 mm
17:15 12.2 °F /  -11 °C -0.9 °F /  -18.3 °C 30.27 in /  1024.9 hPa West 10.8 mph /  17.4 km/h 23.0 mph /  37 km/h 55 % 0.00 in /  0 mm
17:20 12.2 °F /  -11 °C -0.5 °F /  -18.1 °C 30.28 in /  1025.3 hPa WNW 8.8 mph /  14.2 km/h 13.8 mph /  22.2 km/h 56 % 0.00 in /  0 mm
17:22 12.2 °F /  -11 °C -0.5 °F /  -18.1 °C 30.28 in /  1025.3 hPa NNW 7.6 mph /  12.2 km/h 17.0 mph /  27.4 km/h 56 % 0.00 in /  0 mm
17:27 12.1 °F /  -11.1 °C -1.4 °F /  -18.6 °C 30.28 in /  1025.3 hPa WNW 11.9 mph /  19.2 km/h 21.9 mph /  35.2 km/h 54 % 0.00 in /  0 mm
17:31 12.0 °F /  -11.1 °C -1.5 °F /  -18.6 °C 30.28 in /  1025.3 hPa WNW 11.4 mph /  18.3 km/h 22.0 mph /  35.4 km/h 54 % 0.00 in /  0 mm
17:36 11.9 °F /  -11.2 °C -0.8 °F /  -18.2 °C 30.28 in /  1025.3 hPa West 8.6 mph /  13.8 km/h 17.0 mph /  27.4 km/h 56 % 0.00 in /  0 mm
17:41 11.9 °F /  -11.2 °C -0.8 °F /  -18.2 °C 30.29 in /  1025.6 hPa West 10.8 mph /  17.4 km/h 18.4 mph /  29.6 km/h 56 % 0.00 in /  0 mm
17:45 11.8 °F /  -11.2 °C -0.9 °F /  -18.3 °C 30.29 in /  1025.6 hPa WNW 5.8 mph /  9.3 km/h 19.6 mph /  31.5 km/h 56 % 0.00 in /  0 mm
17:50 11.6 °F /  -11.3 °C -1.5 °F /  -18.6 °C 30.29 in /  1025.6 hPa NNW 9.8 mph /  15.8 km/h 19.6 mph /  31.5 km/h 55 % 0.00 in /  0 mm
17:55 11.5 °F /  -11.4 °C -1.2 °F /  -18.4 °C 30.29 in /  1025.6 hPa North 10.0 mph /  16.1 km/h 24.2 mph /  38.9 km/h 56 % 0.00 in /  0 mm
18:01 11.4 °F /  -11.4 °C -0.9 °F /  -18.3 °C 30.30 in /  1026 hPa WNW 11.6 mph /  18.7 km/h 17.3 mph /  27.8 km/h 57 % 0.00 in /  0 mm
18:06 11.2 °F /  -11.6 °C -1.5 °F /  -18.6 °C 30.30 in /  1026 hPa NW 12.8 mph /  20.6 km/h 13.0 mph /  20.9 km/h 56 % 0.00 in /  0 mm
18:09 11.2 °F /  -11.6 °C -1.1 °F /  -18.4 °C 30.30 in /  1026 hPa NW 7.8 mph /  12.6 km/h 11.5 mph /  18.5 km/h 57 % 0.00 in /  0 mm
18:14 11.1 °F /  -11.6 °C -1.9 °F /  -18.8 °C 30.31 in /  1026.3 hPa NNW 12.7 mph /  20.4 km/h 24.2 mph /  38.9 km/h 55 % 0.00 in /  0 mm
18:19 11.0 °F /  -11.7 °C -1.7 °F /  -18.7 °C 30.31 in /  1026.3 hPa NW 11.2 mph /  18 km/h 16.1 mph /  25.9 km/h 56 % 0.00 in /  0 mm
18:22 10.9 °F /  -11.7 °C -1.7 °F /  -18.7 °C 30.31 in /  1026.3 hPa West 8.1 mph /  13 km/h 14.0 mph /  22.5 km/h 56 % 0.00 in /  0 mm
18:27 10.8 °F /  -11.8 °C -1.5 °F /  -18.6 °C 30.32 in /  1026.6 hPa NW 8.1 mph /  13 km/h 16.1 mph /  25.9 km/h 57 % 0.00 in /  0 mm
18:32 10.7 °F /  -11.8 °C -1.9 °F /  -18.8 °C 30.32 in /  1026.6 hPa NW 9.2 mph /  14.8 km/h 15.0 mph /  24.1 km/h 56 % 0.00 in /  0 mm
18:33 10.7 °F /  -11.8 °C -1.9 °F /  -18.8 °C 30.32 in /  1026.6 hPa WNW 6.0 mph /  9.7 km/h 13.8 mph /  22.2 km/h 56 % 0.00 in /  0 mm
18:38 10.6 °F /  -11.9 °C -1.3 °F /  -18.5 °C 30.32 in /  1026.6 hPa NW 6.3 mph /  10.1 km/h 11.5 mph /  18.5 km/h 58 % 0.00 in /  0 mm
18:43 10.4 °F /  -12 °C -1.8 °F /  -18.8 °C 30.32 in /  1026.6 hPa NW 9.1 mph /  14.6 km/h 15.0 mph /  24.1 km/h 57 % 0.00 in /  0 mm
18:49 10.3 °F /  -12.1 °C -1.9 °F /  -18.8 °C 30.32 in /  1026.6 hPa WNW 8.8 mph /  14.2 km/h 17.3 mph /  27.8 km/h 57 % 0.00 in /  0 mm
18:58 10.1 °F /  -12.2 °C -2.1 °F /  -18.9 °C 30.34 in /  1027.3 hPa West 10.2 mph /  16.4 km/h 19.0 mph /  30.6 km/h 57 % 0.00 in /  0 mm
19:00 10.1 °F /  -12.2 °C -2.1 °F /  -18.9 °C 30.33 in /  1027 hPa NW 10.2 mph /  16.4 km/h 17.0 mph /  27.4 km/h 57 % 0.00 in /  0 mm
19:05 10.0 °F /  -12.2 °C -1.9 °F /  -18.8 °C 30.34 in /  1027.3 hPa WNW 6.5 mph /  10.5 km/h 11.5 mph /  18.5 km/h 58 % 0.00 in /  0 mm
19:10 9.8 °F /  -12.3 °C -2.4 °F /  -19.1 °C 30.35 in /  1027.7 hPa NNW 6.9 mph /  11.1 km/h 11.0 mph /  17.7 km/h 57 % 0.00 in /  0 mm
19:13 9.9 °F /  -12.3 °C -1.9 °F /  -18.8 °C 30.34 in /  1027.3 hPa West 5.7 mph /  9.2 km/h 15.0 mph /  24.1 km/h 58 % 0.00 in /  0 mm
19:22 9.5 °F /  -12.5 °C -2.7 °F /  -19.3 °C 30.35 in /  1027.7 hPa WNW 10.0 mph /  16.1 km/h 24.0 mph /  38.6 km/h 57 % 0.00 in /  0 mm
19:27 9.4 °F /  -12.6 °C -2.8 °F /  -19.3 °C 30.34 in /  1027.3 hPa West 10.8 mph /  17.4 km/h 19.6 mph /  31.5 km/h 57 % 0.00 in /  0 mm
19:33 9.4 °F /  -12.6 °C -2.1 °F /  -18.9 °C 30.34 in /  1027.3 hPa WNW 12.4 mph /  20 km/h 26.5 mph /  42.6 km/h 59 % 0.00 in /  0 mm
19:38 9.4 °F /  -12.6 °C -2.1 °F /  -18.9 °C 30.34 in /  1027.3 hPa WNW 8.0 mph /  12.9 km/h 15.0 mph /  24.1 km/h 59 % 0.00 in /  0 mm
19:41 9.3 °F /  -12.6 °C -2.5 °F /  -19.2 °C 30.34 in /  1027.3 hPa NW 9.8 mph /  15.8 km/h 23.0 mph /  37 km/h 58 % 0.00 in /  0 mm
19:47 9.2 °F /  -12.7 °C -2.2 °F /  -19 °C 30.35 in /  1027.7 hPa NW 13.9 mph /  22.4 km/h 19.6 mph /  31.5 km/h 59 % 0.00 in /  0 mm
19:52 9.2 °F /  -12.7 °C -2.6 °F /  -19.2 °C 30.35 in /  1027.7 hPa NW 6.0 mph /  9.7 km/h 12.7 mph /  20.4 km/h 58 % 0.00 in /  0 mm
19:56 9.1 °F /  -12.7 °C -2.0 °F /  -18.9 °C 30.35 in /  1027.7 hPa NW 13.0 mph /  20.9 km/h 26.5 mph /  42.6 km/h 60 % 0.00 in /  0 mm
20:01 9.1 °F /  -12.7 °C -2.0 °F /  -18.9 °C 30.35 in /  1027.7 hPa NW 9.1 mph /  14.6 km/h 18.4 mph /  29.6 km/h 60 % 0.00 in /  0 mm
20:06 9.1 °F /  -12.7 °C -2.0 °F /  -18.9 °C 30.35 in /  1027.7 hPa NW 10.1 mph /  16.3 km/h 19.6 mph /  31.5 km/h 60 % 0.00 in /  0 mm
20:11 9.2 °F /  -12.7 °C -1.5 °F /  -18.6 °C 30.36 in /  1028 hPa NNW 7.9 mph /  12.7 km/h 15.0 mph /  24.1 km/h 61 % 0.00 in /  0 mm
20:16 9.2 °F /  -12.7 °C -1.2 °F /  -18.4 °C 30.36 in /  1028 hPa NW 10.9 mph /  17.5 km/h 18.4 mph /  29.6 km/h 62 % 0.00 in /  0 mm
20:21 9.1 °F /  -12.7 °C -2.0 °F /  -18.9 °C 30.36 in /  1028 hPa WNW 9.4 mph /  15.1 km/h 17.3 mph /  27.8 km/h 60 % 0.00 in /  0 mm
20:22 9.1 °F /  -12.7 °C -2.0 °F /  -18.9 °C 30.36 in /  1028 hPa WNW 9.6 mph /  15.4 km/h 17.3 mph /  27.8 km/h 60 % 0.00 in /  0 mm
20:27 9.1 °F /  -12.7 °C -2.0 °F /  -18.9 °C 30.36 in /  1028 hPa WNW 9.6 mph /  15.4 km/h 15.0 mph /  24.1 km/h 60 % 0.00 in /  0 mm
20:32 9.0 °F /  -12.8 °C -2.1 °F /  -18.9 °C 30.36 in /  1028 hPa NW 8.5 mph /  13.7 km/h 18.4 mph /  29.6 km/h 60 % 0.00 in /  0 mm
20:37 9.0 °F /  -12.8 °C -1.4 °F /  -18.6 °C 30.37 in /  1028.3 hPa WNW 9.0 mph /  14.5 km/h 16.1 mph /  25.9 km/h 62 % 0.00 in /  0 mm
20:43 9.1 °F /  -12.7 °C -1.0 °F /  -18.3 °C 30.37 in /  1028.3 hPa West 5.2 mph /  8.4 km/h 19.6 mph /  31.5 km/h 63 % 0.00 in /  0 mm
20:48 9.1 °F /  -12.7 °C -1.3 °F /  -18.5 °C 30.37 in /  1028.3 hPa WNW 11.1 mph /  17.9 km/h 16.1 mph /  25.9 km/h 62 % 0.00 in /  0 mm
20:53 9.1 °F /  -12.7 °C -1.0 °F /  -18.3 °C 30.37 in /  1028.3 hPa West 4.4 mph /  7.1 km/h 17.3 mph /  27.8 km/h 63 % 0.00 in /  0 mm
20:57 9.1 °F /  -12.7 °C -1.3 °F /  -18.5 °C 30.37 in /  1028.3 hPa West 11.7 mph /  18.8 km/h 17.3 mph /  27.8 km/h 62 % 0.00 in /  0 mm
21:02 9.1 °F /  -12.7 °C -1.3 °F /  -18.5 °C 30.37 in /  1028.3 hPa WSW 8.0 mph /  12.9 km/h 19.6 mph /  31.5 km/h 62 % 0.00 in /  0 mm
21:05 9.0 °F /  -12.8 °C -1.4 °F /  -18.6 °C 30.38 in /  1028.7 hPa NW 10.7 mph /  17.2 km/h 19.6 mph /  31.5 km/h 62 % 0.00 in /  0 mm
21:10 9.0 °F /  -12.8 °C -1.4 °F /  -18.6 °C 30.37 in /  1028.3 hPa West 5.3 mph /  8.5 km/h 9.2 mph /  14.8 km/h 62 % 0.00 in /  0 mm
21:16 9.0 °F /  -12.8 °C -1.4 °F /  -18.6 °C 30.37 in /  1028.3 hPa WNW 7.0 mph /  11.3 km/h 16.0 mph /  25.7 km/h 62 % 0.00 in /  0 mm
21:21 9.0 °F /  -12.8 °C -1.1 °F /  -18.4 °C 30.37 in /  1028.3 hPa WNW 9.0 mph /  14.5 km/h 20.0 mph /  32.2 km/h 63 % 0.00 in /  0 mm
21:26 8.9 °F /  -12.8 °C -1.4 °F /  -18.6 °C 30.38 in /  1028.7 hPa WNW 8.0 mph /  12.9 km/h 22.0 mph /  35.4 km/h 62 % 0.00 in /  0 mm
21:31 8.9 °F /  -12.8 °C -1.1 °F /  -18.4 °C 30.38 in /  1028.7 hPa WNW 12.0 mph /  19.3 km/h 20.0 mph /  32.2 km/h 63 % 0.00 in /  0 mm
21:36 8.9 °F /  -12.8 °C -1.5 °F /  -18.6 °C 30.39 in /  1029 hPa WNW 5.2 mph /  8.4 km/h 13.0 mph /  20.9 km/h 62 % 0.00 in /  0 mm
21:37 8.9 °F /  -12.8 °C -1.5 °F /  -18.6 °C 30.39 in /  1029 hPa WNW 5.8 mph /  9.3 km/h 13.0 mph /  20.9 km/h 62 % 0.00 in /  0 mm
21:42 8.9 °F /  -12.8 °C -1.1 °F /  -18.4 °C 30.38 in /  1028.7 hPa WNW 6.2 mph /  10 km/h 16.0 mph /  25.7 km/h 63 % 0.00 in /  0 mm
21:44 8.9 °F /  -12.8 °C -1.1 °F /  -18.4 °C 30.39 in /  1029 hPa NW 7.5 mph /  12.1 km/h 15.0 mph /  24.1 km/h 63 % 0.00 in /  0 mm
21:46 8.9 °F /  -12.8 °C -1.1 °F /  -18.4 °C 30.39 in /  1029 hPa NW 6.9 mph /  11.1 km/h 12.0 mph /  19.3 km/h 63 % 0.00 in /  0 mm
21:56 8.8 °F /  -12.9 °C -1.2 °F /  -18.4 °C 30.39 in /  1029 hPa WNW 8.7 mph /  14 km/h 12.7 mph /  20.4 km/h 63 % 0.00 in /  0 mm
22:00 8.8 °F /  -12.9 °C -1.6 °F /  -18.7 °C 30.39 in /  1029 hPa WNW 9.7 mph /  15.6 km/h 17.3 mph /  27.8 km/h 62 % 0.00 in /  0 mm
22:05 8.7 °F /  -12.9 °C -1.7 °F /  -18.7 °C 30.39 in /  1029 hPa WNW 11.9 mph /  19.2 km/h 18.4 mph /  29.6 km/h 62 % 0.00 in /  0 mm
22:11 8.7 °F /  -12.9 °C -1.7 °F /  -18.7 °C 30.40 in /  1029.3 hPa WNW 9.0 mph /  14.5 km/h 20.0 mph /  32.2 km/h 62 % 0.00 in /  0 mm
22:16 8.7 °F /  -12.9 °C -1.3 °F /  -18.5 °C 30.40 in /  1029.3 hPa WSW 5.3 mph /  8.5 km/h 13.8 mph /  22.2 km/h 63 % 0.00 in /  0 mm
22:21 8.7 °F /  -12.9 °C -1.3 °F /  -18.5 °C 30.40 in /  1029.3 hPa WNW 7.0 mph /  11.3 km/h 18.0 mph /  29 km/h 63 % 0.00 in /  0 mm
22:26 8.9 °F /  -12.8 °C -0.8 °F /  -18.2 °C 30.40 in /  1029.3 hPa WNW 8.5 mph /  13.7 km/h 16.1 mph /  25.9 km/h 64 % 0.00 in /  0 mm
22:28 8.9 °F /  -12.8 °C -0.8 °F /  -18.2 °C 30.40 in /  1029.3 hPa WNW 9.5 mph /  15.3 km/h 18.4 mph /  29.6 km/h 64 % 0.00 in /  0 mm
22:30 8.9 °F /  -12.8 °C -1.1 °F /  -18.4 °C 30.40 in /  1029.3 hPa WNW 9.1 mph /  14.6 km/h 16.1 mph /  25.9 km/h 63 % 0.00 in /  0 mm
22:35 8.8 °F /  -12.9 °C -0.9 °F /  -18.3 °C 30.40 in /  1029.3 hPa West 4.3 mph /  6.9 km/h 13.8 mph /  22.2 km/h 64 % 0.00 in /  0 mm
22:41 8.7 °F /  -12.9 °C -1.0 °F /  -18.3 °C 30.39 in /  1029 hPa WNW 6.0 mph /  9.7 km/h 16.0 mph /  25.7 km/h 64 % 0.00 in /  0 mm
22:45 8.7 °F /  -12.9 °C -1.3 °F /  -18.5 °C 30.39 in /  1029 hPa WNW 6.7 mph /  10.8 km/h 12.7 mph /  20.4 km/h 63 % 0.00 in /  0 mm
22:50 8.6 °F /  -13 °C -1.1 °F /  -18.4 °C 30.40 in /  1029.3 hPa WNW 6.0 mph /  9.7 km/h 11.5 mph /  18.5 km/h 64 % 0.00 in /  0 mm
22:56 8.6 °F /  -13 °C -1.1 °F /  -18.4 °C 30.40 in /  1029.3 hPa WNW 9.0 mph /  14.5 km/h 18.0 mph /  29 km/h 64 % 0.00 in /  0 mm
23:01 8.7 °F /  -12.9 °C -1.0 °F /  -18.3 °C 30.40 in /  1029.3 hPa WNW 9.6 mph /  15.4 km/h 18.4 mph /  29.6 km/h 64 % 0.00 in /  0 mm
23:06 8.7 °F /  -12.9 °C -1.0 °F /  -18.3 °C 30.40 in /  1029.3 hPa WNW 7.1 mph /  11.4 km/h 11.5 mph /  18.5 km/h 64 % 0.00 in /  0 mm
23:11 8.6 °F /  -13 °C -0.8 °F /  -18.2 °C 30.40 in /  1029.3 hPa WNW 6.3 mph /  10.1 km/h 11.5 mph /  18.5 km/h 65 % 0.00 in /  0 mm
23:13 8.6 °F /  -13 °C -0.8 °F /  -18.2 °C 30.40 in /  1029.3 hPa WNW 5.7 mph /  9.2 km/h 9.2 mph /  14.8 km/h 65 % 0.00 in /  0 mm
23:16 8.6 °F /  -13 °C -0.8 °F /  -18.2 °C 30.40 in /  1029.3 hPa WNW 5.6 mph /  9 km/h 16.1 mph /  25.9 km/h 65 % 0.00 in /  0 mm
23:21 8.6 °F /  -13 °C -1.4 °F /  -18.6 °C 30.40 in /  1029.3 hPa NW 4.5 mph /  7.2 km/h 19.6 mph /  31.5 km/h 63 % 0.00 in /  0 mm
23:27 8.5 °F /  -13.1 °C -1.5 °F /  -18.6 °C 30.40 in /  1029.3 hPa WNW 7.4 mph /  11.9 km/h 16.1 mph /  25.9 km/h 63 % 0.00 in /  0 mm
23:32 8.5 °F /  -13.1 °C -1.5 °F /  -18.6 °C 30.41 in /  1029.7 hPa West 8.2 mph /  13.2 km/h 16.1 mph /  25.9 km/h 63 % 0.00 in /  0 mm
23:37 8.4 °F /  -13.1 °C -1.3 °F /  -18.5 °C 30.41 in /  1029.7 hPa WNW 8.9 mph /  14.3 km/h 13.8 mph /  22.2 km/h 64 % 0.00 in /  0 mm
23:39 8.5 °F /  -13.1 °C -1.2 °F /  -18.4 °C 30.41 in /  1029.7 hPa NW 4.1 mph /  6.6 km/h 16.1 mph /  25.9 km/h 64 % 0.00 in /  0 mm
23:44 8.4 °F /  -13.1 °C -1.3 °F /  -18.5 °C 30.41 in /  1029.7 hPa West 5.8 mph /  9.3 km/h 13.0 mph /  20.9 km/h 64 % 0.00 in /  0 mm
23:49 8.5 °F /  -13.1 °C -0.9 °F /  -18.3 °C 30.41 in /  1029.7 hPa WNW 6.1 mph /  9.8 km/h 11.0 mph /  17.7 km/h 65 % 0.00 in /  0 mm
23:54 8.4 °F /  -13.1 °C -1.3 °F /  -18.5 °C 30.41 in /  1029.7 hPa NW 5.7 mph /  9.2 km/h 11.5 mph /  18.5 km/h 64 % 0.00 in /  0 mm
Crab Meadow Weather
Compliments of Weather Underground - 3 mb

Script developed by  Jim McMurry - jmcmurry@mwt.net Adapted for the template by  Wim van der Kuil - Leuven-Template.eu

Weather Terms: Tornado Warning - Strong rotation in a thunderstorm is indicated by Doppler radar or a tornado is sighted by skywarn spotters. These warnings are issued on a county by county basis by the local Weather Forecast office in Upton.